Time;durP1;ratioP1;P1;durP2;ratioP2;P2;SDS_P1;SDS_P2;PMS_P1;PMS_P2;Temp;Humidity;BMP_temperature;BMP_pressure;BME280_temperature;BME280_humidity;BME280_pressure;Samples;Min_cycle;Max_cycle;Signal;HPM_P1;HPM_P2
2023/07/07 00:00:07;;;;;;;;;11.33;11.00;;;;;;;;119734;1185;24999;-64
2023/07/07 00:02:56;;;;;;;;;10.00;8.00;;;;;;;;119883;1184;25205;-64
2023/07/07 00:05:24;;;;;;;;;7.50;7.50;;;;;;;;119897;1192;25092;-64
2023/07/07 00:07:52;;;;;;;;;12.25;10.25;;;;;;;;119677;1189;25070;-64
2023/07/07 00:10:21;;;;;;;;;9.00;8.50;;;;;;;;119696;1193;25663;-64
2023/07/07 00:12:51;;;;;;;;;10.75;9.50;;;;;;;;119693;1193;24936;-64
2023/07/07 00:15:19;;;;;;;;;6.00;5.00;;;;;;;;119695;1193;25601;-64
2023/07/07 00:17:50;;;;;;;;;9.00;9.00;;;;;;;;119778;1192;25493;-64
2023/07/07 00:20:21;;;;;;;;;7.67;7.00;;;;;;;;119871;1192;25229;-64
2023/07/07 00:22:50;;;;;;;;;12.75;10.50;;;;;;;;119848;1184;25008;-64
2023/07/07 00:25:18;;;;;;;;;9.50;8.00;;;;;;;;119872;1192;25677;-64
2023/07/07 00:27:46;;;;;;;;;6.33;5.33;;;;;;;;119494;1192;25559;-64
2023/07/07 00:30:14;;;;;;;;;9.67;9.67;;;;;;;;119869;1192;25375;-64
2023/07/07 00:32:43;;;;;;;;;11.67;11.33;;;;;;;;119867;1192;25378;-64
2023/07/07 00:35:11;;;;;;;;;7.50;7.25;;;;;;;;119890;1192;24768;-64
2023/07/07 00:37:39;;;;;;;;;5.50;5.25;;;;;;;;119874;1192;25437;-64
2023/07/07 00:40:08;;;;;;;;;10.00;9.00;;;;;;;;119705;1192;24976;-64
2023/07/07 00:42:36;;;;;;;;;9.00;9.00;;;;;;;;119474;1192;25165;-64
2023/07/07 00:45:11;;;;;;;;;6.67;6.67;;;;;;;;119889;1184;25651;-64
2023/07/07 00:47:47;;;;;;;;;8.33;8.33;;;;;;;;119486;1192;25578;-64
2023/07/07 00:50:19;;;;;;;;;9.50;8.50;;;;;;;;119881;1192;24920;-64
2023/07/07 00:52:48;;;;;;;;;7.00;7.00;;;;;;;;119853;1192;25158;-64
2023/07/07 00:55:38;;;;;;;;;8.67;7.00;;;;;;;;119868;1183;25775;-64
2023/07/07 00:58:10;;;;;;;;;10.50;9.00;;;;;;;;119872;1192;25040;-64
2023/07/07 01:00:42;;;;;;;;;10.00;9.00;;;;;;;;119881;1183;25595;-64
2023/07/07 01:03:22;;;;;;;;;9.00;9.00;;;;;;;;119856;1192;25800;-64
2023/07/07 01:05:54;;;;;;;;;8.00;8.00;;;;;;;;119483;1184;24786;-64
2023/07/07 01:08:23;;;;;;;;;6.67;6.67;;;;;;;;119882;1192;24914;-64
2023/07/07 01:10:51;;;;;;;;;9.00;9.00;;;;;;;;119869;1192;25300;-64
2023/07/07 01:13:21;;;;;;;;;8.00;8.00;;;;;;;;119896;1184;25004;-64
2023/07/07 01:15:59;;;;;;;;;9.00;9.00;;;;;;;;119474;1192;25007;-64
2023/07/07 01:19:18;;;;;;;;;7.33;7.33;;;;;;;;119883;1184;25251;-64
2023/07/07 01:22:01;;;;;;;;;9.00;8.33;;;;;;;;119643;1192;25748;-64
2023/07/07 01:24:52;;;;;;;;;10.00;10.00;;;;;;;;119873;1192;25640;-64
2023/07/07 01:27:49;;;;;;;;;8.50;8.50;;;;;;;;119889;1184;24876;-64
2023/07/07 01:30:29;;;;;;;;;8.00;7.00;;;;;;;;119534;1192;24846;-64
2023/07/07 01:33:01;;;;;;;;;8.00;8.00;;;;;;;;119862;1184;24739;-65
2023/07/07 01:35:29;;;;;;;;;7.50;7.00;;;;;;;;119481;1186;24820;-64
2023/07/07 01:38:00;;;;;;;;;9.00;8.00;;;;;;;;119858;1192;25101;-64
2023/07/07 01:40:40;;;;;;;;;9.00;6.50;;;;;;;;119484;1192;25577;-64
2023/07/07 01:43:19;;;;;;;;;9.50;8.25;;;;;;;;119514;1185;24781;-65
2023/07/07 01:46:33;;;;;;;;;10.00;10.00;;;;;;;;119485;1192;25643;-66
2023/07/07 01:49:09;;;;;;;;;10.00;8.00;;;;;;;;119402;1195;25218;-64
2023/07/07 01:51:46;;;;;;;;;8.67;7.00;;;;;;;;119351;1195;25338;-64
2023/07/07 01:54:16;;;;;;;;;6.00;6.00;;;;;;;;119461;1192;25616;-64
2023/07/07 01:56:46;;;;;;;;;8.00;8.00;;;;;;;;119502;1192;25051;-65
2023/07/07 01:59:16;;;;;;;;;9.00;9.00;;;;;;;;119481;1192;24841;-65
2023/07/07 02:01:44;;;;;;;;;7.00;7.00;;;;;;;;119492;1189;24880;-66
2023/07/07 02:04:13;;;;;;;;;7.50;7.00;;;;;;;;119513;1185;25633;-65
2023/07/07 02:06:41;;;;;;;;;8.00;6.00;;;;;;;;119868;1192;25199;-65
2023/07/07 02:09:10;;;;;;;;;7.50;6.00;;;;;;;;119477;1192;24955;-65
2023/07/07 02:11:38;;;;;;;;;6.00;6.00;;;;;;;;119509;1192;25306;-66
2023/07/07 02:14:06;;;;;;;;;7.00;7.00;;;;;;;;119858;1183;25295;-64
2023/07/07 02:16:34;;;;;;;;;6.75;6.75;;;;;;;;119865;1192;25600;-64
2023/07/07 02:19:03;;;;;;;;;8.00;7.00;;;;;;;;119873;1192;25038;-64
2023/07/07 02:21:31;;;;;;;;;4.50;4.50;;;;;;;;119863;1183;25659;-64
2023/07/07 02:23:59;;;;;;;;;8.00;6.00;;;;;;;;119868;1192;25502;-64
2023/07/07 02:26:28;;;;;;;;;8.67;5.00;;;;;;;;119881;1192;25381;-64
2023/07/07 02:28:56;;;;;;;;;6.00;6.00;;;;;;;;119879;1192;25059;-65
2023/07/07 02:31:26;;;;;;;;;8.00;7.33;;;;;;;;119867;1192;25135;-66
2023/07/07 02:33:54;;;;;;;;;5.50;5.50;;;;;;;;119863;1184;25176;-65
2023/07/07 02:36:24;;;;;;;;;7.50;7.00;;;;;;;;119873;1192;25469;-65
2023/07/07 02:38:53;;;;;;;;;8.00;6.25;;;;;;;;119856;1192;25673;-65
2023/07/07 02:41:22;;;;;;;;;7.00;5.00;;;;;;;;119505;1185;25582;-65
2023/07/07 02:43:50;;;;;;;;;8.00;5.00;;;;;;;;119506;1192;25027;-64
2023/07/07 02:46:21;;;;;;;;;7.50;5.50;;;;;;;;119845;1192;25124;-65
2023/07/07 02:48:50;;;;;;;;;5.33;5.33;;;;;;;;119859;1192;25518;-64
2023/07/07 02:51:18;;;;;;;;;4.50;4.50;;;;;;;;119861;1184;25268;-64
2023/07/07 02:53:47;;;;;;;;;6.50;5.50;;;;;;;;119479;1192;24689;-63
2023/07/07 02:56:15;;;;;;;;;9.67;7.67;;;;;;;;119521;1192;25357;-64
2023/07/07 02:58:43;;;;;;;;;9.00;7.00;;;;;;;;119880;1183;25349;-63
2023/07/07 03:01:14;;;;;;;;;8.00;8.00;;;;;;;;119863;1192;24746;-63
2023/07/07 03:03:45;;;;;;;;;6.50;5.50;;;;;;;;119865;1192;25217;-64
2023/07/07 03:06:16;;;;;;;;;9.50;8.50;;;;;;;;119881;1184;25159;-63
2023/07/07 03:08:45;;;;;;;;;9.67;8.33;;;;;;;;119859;1192;25521;-63
2023/07/07 03:11:17;;;;;;;;;12.75;11.25;;;;;;;;119490;1192;25006;-64
2023/07/07 03:13:47;;;;;;;;;10.00;9.00;;;;;;;;119489;1192;25780;-64
2023/07/07 03:16:22;;;;;;;;;10.00;7.00;;;;;;;;119895;1192;25134;-63
2023/07/07 03:19:02;;;;;;;;;8.67;6.00;;;;;;;;119882;1191;25487;-63
2023/07/07 03:21:31;;;;;;;;;9.00;8.00;;;;;;;;119883;1191;25194;-63
2023/07/07 03:23:59;;;;;;;;;8.00;8.00;;;;;;;;119463;1192;25534;-63
2023/07/07 03:26:28;;;;;;;;;11.50;9.00;;;;;;;;119875;1188;25193;-63
2023/07/07 03:28:56;;;;;;;;;10.00;9.00;;;;;;;;119881;1179;25433;-63
2023/07/07 03:31:27;;;;;;;;;10.50;8.50;;;;;;;;119864;1192;24778;-63
2023/07/07 03:33:57;;;;;;;;;10.00;9.00;;;;;;;;119487;1192;24974;-63
2023/07/07 03:36:28;;;;;;;;;12.33;11.33;;;;;;;;119465;1192;25573;-63
2023/07/07 03:38:56;;;;;;;;;5.00;5.00;;;;;;;;119495;1185;24810;-63
2023/07/07 03:41:28;;;;;;;;;6.00;6.00;;;;;;;;119505;1192;25165;-63
2023/07/07 03:43:56;;;;;;;;;10.00;9.25;;;;;;;;119494;1192;25033;-63
2023/07/07 03:46:26;;;;;;;;;11.67;10.67;;;;;;;;119870;1192;25176;-63
2023/07/07 03:48:55;;;;;;;;;16.25;13.25;;;;;;;;119517;1192;25454;-64
2023/07/07 03:51:26;;;;;;;;;10.00;8.67;;;;;;;;119491;1192;24684;-64
2023/07/07 03:53:55;;;;;;;;;14.00;12.00;;;;;;;;119511;1192;25473;-64
2023/07/07 03:56:26;;;;;;;;;16.50;13.00;;;;;;;;119516;1192;24860;-63
2023/07/07 03:58:54;;;;;;;;;11.00;10.67;;;;;;;;119888;1184;25575;-63
2023/07/07 04:01:23;;;;;;;;;11.25;11.25;;;;;;;;119863;1192;24943;-64
2023/07/07 04:03:51;;;;;;;;;10.50;10.50;;;;;;;;119885;1192;25784;-63
2023/07/07 04:06:19;;;;;;;;;10.00;8.00;;;;;;;;119863;1183;25246;-63
2023/07/07 04:08:48;;;;;;;;;13.00;9.00;;;;;;;;119896;1192;25758;-63
2023/07/07 04:11:20;;;;;;;;;8.50;8.50;;;;;;;;119701;1192;25500;-63
2023/07/07 04:13:49;;;;;;;;;16.00;12.00;;;;;;;;119907;1192;25320;-64
2023/07/07 04:16:20;;;;;;;;;15.00;11.50;;;;;;;;119879;1192;25470;-64
2023/07/07 04:18:50;;;;;;;;;11.25;10.50;;;;;;;;119495;1189;26124;-63
2023/07/07 04:21:21;;;;;;;;;13.75;10.25;;;;;;;;119726;1192;25689;-63
2023/07/07 04:23:52;;;;;;;;;15.67;11.00;;;;;;;;119721;1192;25397;-63
2023/07/07 04:26:21;;;;;;;;;13.50;9.75;;;;;;;;119718;1192;25094;-63
2023/07/07 04:28:51;;;;;;;;;12.00;12.00;;;;;;;;119732;1192;24940;-63
2023/07/07 04:31:23;;;;;;;;;16.50;13.00;;;;;;;;119735;1192;25309;-63
2023/07/07 04:33:52;;;;;;;;;9.67;9.67;;;;;;;;119921;1192;25819;-63
2023/07/07 04:36:21;;;;;;;;;15.75;11.00;;;;;;;;119718;1192;24785;-64
2023/07/07 04:38:49;;;;;;;;;11.25;9.75;;;;;;;;119876;1183;24893;-64
2023/07/07 04:41:24;;;;;;;;;10.00;8.33;;;;;;;;119891;1192;24985;-64
2023/07/07 04:43:56;;;;;;;;;12.33;12.33;;;;;;;;119715;1189;24966;-64
2023/07/07 04:46:33;;;;;;;;;12.50;10.00;;;;;;;;119905;1188;25273;-64
2023/07/07 04:49:06;;;;;;;;;12.00;12.00;;;;;;;;119783;1189;24995;-64
2023/07/07 04:51:37;;;;;;;;;13.50;12.00;;;;;;;;119512;1185;25490;-64
2023/07/07 04:54:06;;;;;;;;;12.00;10.00;;;;;;;;119828;1188;25444;-64
2023/07/07 04:56:34;;;;;;;;;11.50;10.50;;;;;;;;119486;1185;24940;-64
2023/07/07 04:59:04;;;;;;;;;10.00;9.00;;;;;;;;119492;1192;25101;-64
2023/07/07 05:01:33;;;;;;;;;13.50;12.00;;;;;;;;119472;1190;25416;-63
2023/07/07 05:04:02;;;;;;;;;12.00;11.00;;;;;;;;119489;1192;25477;-68
2023/07/07 05:06:34;;;;;;;;;14.50;12.00;;;;;;;;119880;1192;24901;-66
2023/07/07 05:09:04;;;;;;;;;10.00;10.00;;;;;;;;119482;1192;24766;-66
2023/07/07 05:11:33;;;;;;;;;13.33;13.00;;;;;;;;119487;1192;25122;-66
2023/07/07 05:14:02;;;;;;;;;11.00;10.75;;;;;;;;119512;1186;25097;-64
2023/07/07 05:16:35;;;;;;;;;13.00;13.00;;;;;;;;119496;1185;25207;-65
2023/07/07 05:19:05;;;;;;;;;14.25;11.25;;;;;;;;119871;1192;25318;-66
2023/07/07 05:21:33;;;;;;;;;15.50;12.00;;;;;;;;119506;1192;25318;-66
2023/07/07 05:24:02;;;;;;;;;14.00;13.50;;;;;;;;119843;1188;24874;-69
2023/07/07 05:26:30;;;;;;;;;16.00;12.33;;;;;;;;119489;1185;26446;-68
2023/07/07 05:29:01;;;;;;;;;12.00;12.00;;;;;;;;119856;1192;25110;-66
2023/07/07 05:31:30;;;;;;;;;14.50;13.75;;;;;;;;119867;1192;25018;-68
2023/07/07 05:33:59;;;;;;;;;16.25;12.00;;;;;;;;119481;1192;25037;-67
2023/07/07 05:36:27;;;;;;;;;10.00;9.50;;;;;;;;119511;1192;25263;-65
2023/07/07 05:38:56;;;;;;;;;13.33;10.67;;;;;;;;119875;1192;25376;-68
2023/07/07 05:41:24;;;;;;;;;11.50;11.25;;;;;;;;119905;1192;25231;-68
2023/07/07 05:43:52;;;;;;;;;12.00;12.00;;;;;;;;119860;1192;26223;-69
2023/07/07 05:46:20;;;;;;;;;9.00;8.33;;;;;;;;119878;1184;25186;-67
2023/07/07 05:48:49;;;;;;;;;14.33;14.33;;;;;;;;119859;1192;25240;-69
2023/07/07 05:51:19;;;;;;;;;11.67;11.33;;;;;;;;119718;1192;25054;-68
2023/07/07 05:53:47;;;;;;;;;10.00;9.00;;;;;;;;119848;1192;25150;-68
2023/07/07 05:56:18;;;;;;;;;15.00;12.67;;;;;;;;119732;1192;24998;-68
2023/07/07 05:58:47;;;;;;;;;13.00;13.00;;;;;;;;119860;1192;25353;-67
2023/07/07 06:01:15;;;;;;;;;17.50;17.50;;;;;;;;119862;1184;25305;-69
2023/07/07 06:03:44;;;;;;;;;8.00;7.00;;;;;;;;119710;1192;25472;-68
2023/07/07 06:06:13;;;;;;;;;15.50;10.75;;;;;;;;119728;1192;24828;-69
2023/07/07 06:08:42;;;;;;;;;15.50;15.50;;;;;;;;119905;1179;25466;-71
2023/07/07 06:11:10;;;;;;;;;15.67;13.00;;;;;;;;119670;1192;25104;-67
2023/07/07 06:13:39;;;;;;;;;18.33;14.67;;;;;;;;119851;1184;24886;-66
2023/07/07 06:16:07;;;;;;;;;16.00;13.33;;;;;;;;119895;1188;24982;-68
2023/07/07 06:18:36;;;;;;;;;15.67;13.00;;;;;;;;119869;1188;24875;-68
2023/07/07 06:21:04;;;;;;;;;13.00;11.25;;;;;;;;119872;1188;25686;-66
2023/07/07 06:23:33;;;;;;;;;21.00;16.00;;;;;;;;119903;1183;25322;-65
2023/07/07 06:26:01;;;;;;;;;16.67;15.67;;;;;;;;119856;1188;25386;-65
2023/07/07 06:28:30;;;;;;;;;18.33;17.00;;;;;;;;119900;1183;24850;-66
2023/07/07 06:30:58;;;;;;;;;16.25;11.75;;;;;;;;119472;1190;25468;-66
2023/07/07 06:33:28;;;;;;;;;13.50;12.00;;;;;;;;119529;1190;24839;-67
2023/07/07 06:35:56;;;;;;;;;20.50;18.00;;;;;;;;119487;1192;25304;-67
2023/07/07 06:38:24;;;;;;;;;20.00;17.00;;;;;;;;119891;1192;25074;-66
2023/07/07 06:40:53;;;;;;;;;17.00;14.00;;;;;;;;119476;1185;25708;-68
2023/07/07 06:43:21;;;;;;;;;18.50;16.50;;;;;;;;119534;1184;25097;-67
2023/07/07 06:45:53;;;;;;;;;13.00;13.00;;;;;;;;119504;1185;25561;-70
2023/07/07 06:48:21;;;;;;;;;15.50;13.25;;;;;;;;119407;1190;24725;-69
2023/07/07 06:50:50;;;;;;;;;18.33;16.67;;;;;;;;119526;1185;25623;-67
2023/07/07 06:53:19;;;;;;;;;17.50;15.50;;;;;;;;119685;1185;25188;-67
2023/07/07 06:55:47;;;;;;;;;20.50;16.50;;;;;;;;119442;1193;25573;-66
2023/07/07 06:58:15;;;;;;;;;11.00;10.00;;;;;;;;119472;1192;24802;-70
2023/07/07 07:00:44;;;;;;;;;18.00;15.50;;;;;;;;119859;1184;25101;-68
2023/07/07 07:03:12;;;;;;;;;13.50;13.25;;;;;;;;119866;1188;25377;-69
2023/07/07 07:05:41;;;;;;;;;15.00;15.00;;;;;;;;119868;1192;25632;-70
2023/07/07 07:08:15;;;;;;;;;16.00;15.50;;;;;;;;119858;1192;25502;-71
2023/07/07 07:10:43;;;;;;;;;31.00;27.00;;;;;;;;119834;1189;26039;-69
2023/07/07 07:13:11;;;;;;;;;34.33;31.00;;;;;;;;119852;1188;25960;-69
2023/07/07 07:15:39;;;;;;;;;26.00;22.00;;;;;;;;119810;1189;25650;-71
2023/07/07 07:18:09;;;;;;;;;24.00;20.00;;;;;;;;119771;1192;26072;-71
2023/07/07 07:20:37;;;;;;;;;24.00;22.33;;;;;;;;119460;1190;24881;-66
2023/07/07 07:23:05;;;;;;;;;24.00;21.67;;;;;;;;119817;1189;24922;-69
2023/07/07 07:25:34;;;;;;;;;21.67;16.67;;;;;;;;119866;1184;25283;-72
2023/07/07 07:28:02;;;;;;;;;20.33;19.33;;;;;;;;119862;1188;25786;-72
2023/07/07 07:30:30;;;;;;;;;23.00;23.00;;;;;;;;119873;1184;25679;-71
2023/07/07 07:33:03;;;;;;;;;21.50;20.00;;;;;;;;119491;1185;25512;-70
2023/07/07 07:35:31;;;;;;;;;24.00;20.33;;;;;;;;119487;1190;24988;-72
2023/07/07 07:38:00;;;;;;;;;21.50;17.50;;;;;;;;119570;1180;25008;-67
2023/07/07 07:40:28;;;;;;;;;18.33;18.33;;;;;;;;119863;1188;25068;-67
2023/07/07 07:42:56;;;;;;;;;18.50;17.50;;;;;;;;119692;1192;25268;-69
2023/07/07 07:45:25;;;;;;;;;24.50;20.50;;;;;;;;119861;1188;25575;-68
2023/07/07 07:47:53;;;;;;;;;20.00;20.00;;;;;;;;119880;1188;24864;-67
2023/07/07 07:50:22;;;;;;;;;24.00;19.00;;;;;;;;119522;1185;25512;-68
2023/07/07 07:52:51;;;;;;;;;19.00;19.00;;;;;;;;119500;1185;25580;-69
2023/07/07 07:55:19;;;;;;;;;20.00;19.00;;;;;;;;119853;1192;25586;-67
2023/07/07 07:57:47;;;;;;;;;23.33;19.00;;;;;;;;119868;1189;24850;-67
2023/07/07 08:00:16;;;;;;;;;20.00;18.50;;;;;;;;119514;1185;24948;-66
2023/07/07 08:02:45;;;;;;;;;22.00;20.50;;;;;;;;119851;1188;24772;-70
2023/07/07 08:05:14;;;;;;;;;20.50;17.50;;;;;;;;119483;1186;24999;-64
2023/07/07 08:07:42;;;;;;;;;17.75;16.25;;;;;;;;119678;1189;25113;-67
2023/07/07 08:10:11;;;;;;;;;20.00;17.00;;;;;;;;119802;1183;25175;-67
2023/07/07 08:12:39;;;;;;;;;15.50;15.25;;;;;;;;119830;1188;25579;-63
2023/07/07 08:15:10;;;;;;;;;19.25;15.75;;;;;;;;119837;1179;25485;-63
2023/07/07 08:17:39;;;;;;;;;17.50;15.50;;;;;;;;119541;1185;25357;-62
2023/07/07 08:20:16;;;;;;;;;13.50;13.50;;;;;;;;119809;1189;25583;-63
2023/07/07 08:22:45;;;;;;;;;15.25;10.25;;;;;;;;119780;1189;24829;-63
2023/07/07 08:25:13;;;;;;;;;16.00;13.00;;;;;;;;119466;1192;25901;-63
2023/07/07 08:27:42;;;;;;;;;20.00;16.00;;;;;;;;119819;1188;24729;-63
2023/07/07 08:30:30;;;;;;;;;15.00;14.00;;;;;;;;119824;1183;24876;-63
2023/07/07 08:32:59;;;;;;;;;14.00;10.67;;;;;;;;119568;1188;25279;-63
2023/07/07 08:35:27;;;;;;;;;9.00;8.33;;;;;;;;119462;1190;25635;-63
2023/07/07 08:37:55;;;;;;;;;16.00;14.00;;;;;;;;119624;1180;25104;-63
2023/07/07 08:40:25;;;;;;;;;17.50;15.00;;;;;;;;119793;1185;25673;-63
2023/07/07 08:42:53;;;;;;;;;15.00;14.00;;;;;;;;119478;1190;24979;-65
2023/07/07 08:45:23;;;;;;;;;15.50;15.00;;;;;;;;119572;1189;25344;-62
2023/07/07 08:47:54;;;;;;;;;12.00;12.00;;;;;;;;119542;1190;25068;-63
2023/07/07 08:51:02;;;;;;;;;18.33;15.00;;;;;;;;119551;1189;25286;-63
2023/07/07 08:53:47;;;;;;;;;14.75;14.00;;;;;;;;119057;1193;25101;-63
2023/07/07 08:56:34;;;;;;;;;17.50;16.50;;;;;;;;119176;1192;25356;-63
2023/07/07 08:59:02;;;;;;;;;15.50;13.50;;;;;;;;119359;1192;25803;-64
2023/07/07 09:01:43;;;;;;;;;15.33;11.67;;;;;;;;119831;1188;25435;-64
2023/07/07 09:04:47;;;;;;;;;14.75;12.75;;;;;;;;119779;1189;25960;-64
2023/07/07 09:07:28;;;;;;;;;18.00;14.33;;;;;;;;119781;1192;25787;-64
2023/07/07 09:10:10;;;;;;;;;13.50;12.00;;;;;;;;119555;1189;25429;-64
2023/07/07 09:12:48;;;;;;;;;16.00;12.50;;;;;;;;119789;1186;25021;-62
2023/07/07 09:15:30;;;;;;;;;13.67;12.67;;;;;;;;119493;1192;25087;-63
2023/07/07 09:18:13;;;;;;;;;15.00;12.00;;;;;;;;119470;1190;24909;-63
2023/07/07 09:20:42;;;;;;;;;17.67;12.67;;;;;;;;119790;1180;25310;-62
2023/07/07 09:23:15;;;;;;;;;16.00;14.25;;;;;;;;119526;1189;25365;-62
2023/07/07 09:25:55;;;;;;;;;8.00;8.00;;;;;;;;119845;1184;25465;-63
2023/07/07 09:28:27;;;;;;;;;14.00;12.00;;;;;;;;119677;1186;24777;-62
2023/07/07 09:31:16;;;;;;;;;11.00;11.00;;;;;;;;119436;1181;25277;-62
2023/07/07 09:33:45;;;;;;;;;15.33;13.00;;;;;;;;119462;1189;25428;-62
2023/07/07 09:36:16;;;;;;;;;10.67;10.67;;;;;;;;119515;1188;25155;-62
2023/07/07 09:39:07;;;;;;;;;10.50;10.00;;;;;;;;119477;1185;25033;-62
2023/07/07 09:41:39;;;;;;;;;13.67;11.33;;;;;;;;119818;1192;25129;-63
2023/07/07 09:44:19;;;;;;;;;13.00;13.00;;;;;;;;119860;1183;25621;-63
2023/07/07 09:47:06;;;;;;;;;12.00;12.00;;;;;;;;119849;1184;25402;-62
2023/07/07 09:49:57;;;;;;;;;13.00;13.00;;;;;;;;119467;1192;25498;-63
2023/07/07 09:52:46;;;;;;;;;10.00;8.50;;;;;;;;119836;1192;25334;-63
2023/07/07 09:55:22;;;;;;;;;13.33;11.67;;;;;;;;119880;1188;25459;-63
2023/07/07 09:58:16;;;;;;;;;12.67;12.67;;;;;;;;119509;1185;24886;-63
2023/07/07 10:00:47;;;;;;;;;14.00;11.00;;;;;;;;119486;1189;25702;-63
2023/07/07 10:03:28;;;;;;;;;14.00;11.00;;;;;;;;119487;1190;25284;-63
2023/07/07 10:05:58;;;;;;;;;15.00;11.50;;;;;;;;119854;1192;25502;-62
2023/07/07 10:08:28;;;;;;;;;13.50;9.50;;;;;;;;119864;1183;25344;-63
2023/07/07 10:11:21;;;;;;;;;11.00;9.50;;;;;;;;119856;1192;24710;-64
2023/07/07 10:14:14;;;;;;;;;11.33;9.00;;;;;;;;119890;1179;25809;-64
2023/07/07 10:16:54;;;;;;;;;9.50;9.00;;;;;;;;119506;1180;25235;-64
2023/07/07 10:19:24;;;;;;;;;11.00;9.00;;;;;;;;119867;1192;25003;-63
2023/07/07 10:21:53;;;;;;;;;11.00;9.00;;;;;;;;119714;1192;24792;-63
2023/07/07 10:24:21;;;;;;;;;12.00;11.00;;;;;;;;119722;1192;24869;-63
2023/07/07 10:26:50;;;;;;;;;13.00;10.00;;;;;;;;119849;1189;25278;-63
2023/07/07 10:29:22;;;;;;;;;9.25;8.50;;;;;;;;119837;1188;25332;-63
2023/07/07 10:31:51;;;;;;;;;11.00;8.00;;;;;;;;119463;1189;24885;-63
2023/07/07 10:34:22;;;;;;;;;10.67;9.00;;;;;;;;119469;1190;25254;-63
2023/07/07 10:36:53;;;;;;;;;12.00;10.00;;;;;;;;119757;1189;25585;-63
2023/07/07 10:39:26;;;;;;;;;8.00;8.00;;;;;;;;119499;1189;24751;-64
2023/07/07 10:41:55;;;;;;;;;14.00;9.00;;;;;;;;119789;1192;25554;-62
2023/07/07 10:44:25;;;;;;;;;8.50;8.50;;;;;;;;119497;1190;25027;-63
2023/07/07 10:46:54;;;;;;;;;11.00;9.00;;;;;;;;119492;1192;24866;-63
2023/07/07 10:49:26;;;;;;;;;9.00;9.00;;;;;;;;119865;1184;25528;-63
2023/07/07 10:51:59;;;;;;;;;8.00;8.00;;;;;;;;119524;1184;25599;-64
2023/07/07 10:55:06;;;;;;;;;10.67;8.67;;;;;;;;119518;1192;25391;-64
2023/07/07 10:57:43;;;;;;;;;8.50;8.00;;;;;;;;119583;1187;25250;-66
2023/07/07 11:00:18;;;;;;;;;12.67;10.67;;;;;;;;119546;1189;24748;-64
2023/07/07 11:03:35;;;;;;;;;9.00;7.00;;;;;;;;119543;1185;25402;-64
2023/07/07 11:06:51;;;;;;;;;14.00;11.00;;;;;;;;119852;1184;25057;-63
2023/07/07 11:09:40;;;;;;;;;7.00;7.00;;;;;;;;119514;1183;24711;-66
2023/07/07 11:12:57;;;;;;;;;11.50;8.50;;;;;;;;119892;1183;25677;-70
2023/07/07 11:15:34;;;;;;;;;6.00;5.33;;;;;;;;119388;1187;24770;-66
2023/07/07 11:18:36;;;;;;;;;8.00;7.50;;;;;;;;119742;1192;26469;-66
2023/07/07 11:21:11;;;;;;;;;5.00;5.00;;;;;;;;119698;1193;25204;-66
2023/07/07 11:24:10;;;;;;;;;8.00;8.00;;;;;;;;119703;1185;25532;-65
2023/07/07 11:27:17;;;;;;;;;12.50;9.50;;;;;;;;119525;1186;25180;-65
2023/07/07 11:30:09;;;;;;;;;9.50;6.00;;;;;;;;119671;1189;25292;-70
2023/07/07 11:33:13;;;;;;;;;12.33;9.33;;;;;;;;119649;1193;24787;-68
2023/07/07 11:35:53;;;;;;;;;6.50;6.50;;;;;;;;119816;1185;24984;-67
2023/07/07 11:38:58;;;;;;;;;13.00;9.00;;;;;;;;119455;1192;25077;-71
2023/07/07 11:41:40;;;;;;;;;12.33;10.00;;;;;;;;119869;1192;25684;-68
2023/07/07 11:44:11;;;;;;;;;11.67;9.00;;;;;;;;119478;1192;25420;-67
2023/07/07 11:46:39;;;;;;;;;10.50;8.00;;;;;;;;119440;1192;25968;-64
2023/07/07 11:49:30;;;;;;;;;11.00;10.00;;;;;;;;119757;1189;25644;-64
2023/07/07 11:52:17;;;;;;;;;12.00;8.50;;;;;;;;119773;1183;25291;-68
2023/07/07 11:55:07;;;;;;;;;13.67;9.67;;;;;;;;119806;1189;25515;-69
2023/07/07 11:57:54;;;;;;;;;9.00;8.50;;;;;;;;119455;1191;24802;-71
2023/07/07 12:00:41;;;;;;;;;11.50;8.00;;;;;;;;119447;1193;25534;-70
2023/07/07 12:03:33;;;;;;;;;6.00;6.00;;;;;;;;119426;1186;24904;-70
2023/07/07 12:06:17;;;;;;;;;10.50;8.50;;;;;;;;119675;1186;24883;-70
2023/07/07 12:08:58;;;;;;;;;10.00;10.00;;;;;;;;119655;1193;25237;-69
2023/07/07 12:11:29;;;;;;;;;8.00;8.00;;;;;;;;119457;1184;25794;-67
2023/07/07 12:14:01;;;;;;;;;10.00;8.00;;;;;;;;119771;1189;24976;-67
2023/07/07 12:16:30;;;;;;;;;9.00;9.00;;;;;;;;119864;1192;25583;-68
2023/07/07 12:19:19;;;;;;;;;9.00;7.00;;;;;;;;119472;1190;25628;-69
2023/07/07 12:21:51;;;;;;;;;8.33;5.33;;;;;;;;119503;1185;24896;-70
2023/07/07 12:24:31;;;;;;;;;10.00;8.00;;;;;;;;119461;1193;25550;-70
2023/07/07 12:27:10;;;;;;;;;10.00;8.00;;;;;;;;119477;1192;25488;-70
2023/07/07 12:29:40;;;;;;;;;9.00;7.67;;;;;;;;119497;1184;24698;-69
2023/07/07 12:32:09;;;;;;;;;9.67;8.33;;;;;;;;119839;1192;24883;-70
2023/07/07 12:35:05;;;;;;;;;10.00;7.00;;;;;;;;119491;1193;25873;-70
2023/07/07 12:37:34;;;;;;;;;7.33;5.00;;;;;;;;119614;1192;25549;-70
2023/07/07 12:40:08;;;;;;;;;10.50;10.00;;;;;;;;119479;1192;24907;-70
2023/07/07 12:42:39;;;;;;;;;8.50;6.00;;;;;;;;119857;1192;25599;-70
2023/07/07 12:45:18;;;;;;;;;10.00;8.00;;;;;;;;119510;1186;25400;-70
2023/07/07 12:47:56;;;;;;;;;10.00;8.50;;;;;;;;119872;1192;26336;-70
2023/07/07 12:50:38;;;;;;;;;10.00;10.00;;;;;;;;119852;1192;25373;-70
2023/07/07 12:53:12;;;;;;;;;10.00;9.00;;;;;;;;119481;1186;25357;-70
2023/07/07 12:55:58;;;;;;;;;9.67;7.67;;;;;;;;119482;1191;25595;-71
2023/07/07 12:58:50;;;;;;;;;8.50;8.50;;;;;;;;119865;1183;25174;-71
2023/07/07 13:01:18;;;;;;;;;10.00;10.00;;;;;;;;119866;1192;25287;-70
2023/07/07 13:04:09;;;;;;;;;9.00;7.67;;;;;;;;119893;1192;26355;-70
2023/07/07 13:06:40;;;;;;;;;14.33;7.00;;;;;;;;119862;1192;25166;-70
2023/07/07 13:09:11;;;;;;;;;10.67;9.00;;;;;;;;119875;1183;25477;-70
2023/07/07 13:11:42;;;;;;;;;8.50;7.75;;;;;;;;119879;1183;24848;-70
2023/07/07 13:14:30;;;;;;;;;9.00;9.00;;;;;;;;119859;1192;25053;-70
2023/07/07 13:17:04;;;;;;;;;10.25;9.00;;;;;;;;119500;1180;25221;-71
2023/07/07 13:19:34;;;;;;;;;14.33;11.00;;;;;;;;119846;1180;24960;-71
2023/07/07 13:22:17;;;;;;;;;7.00;7.00;;;;;;;;119536;1186;25433;-70
2023/07/07 13:24:46;;;;;;;;;7.33;7.33;;;;;;;;119481;1192;25343;-70
2023/07/07 13:27:17;;;;;;;;;9.00;8.00;;;;;;;;119866;1192;24968;-70
2023/07/07 13:29:45;;;;;;;;;13.00;10.00;;;;;;;;119838;1192;24784;-71
2023/07/07 13:32:30;;;;;;;;;9.25;9.25;;;;;;;;119865;1183;24991;-71
2023/07/07 13:35:00;;;;;;;;;10.00;9.00;;;;;;;;119500;1189;25425;-71
2023/07/07 13:37:30;;;;;;;;;10.00;7.00;;;;;;;;119488;1185;25002;-70
2023/07/07 13:39:59;;;;;;;;;10.25;8.75;;;;;;;;119516;1179;25057;-71
2023/07/07 13:42:30;;;;;;;;;11.00;8.33;;;;;;;;119870;1192;25356;-71
2023/07/07 13:45:03;;;;;;;;;8.00;8.00;;;;;;;;119481;1192;25070;-71
2023/07/07 13:47:31;;;;;;;;;8.00;7.00;;;;;;;;119885;1192;25137;-71
2023/07/07 13:50:04;;;;;;;;;8.50;7.00;;;;;;;;119847;1192;25060;-71
2023/07/07 13:52:34;;;;;;;;;8.00;8.00;;;;;;;;119501;1185;24832;-71
2023/07/07 13:55:02;;;;;;;;;11.00;8.00;;;;;;;;119497;1185;25075;-71
2023/07/07 13:57:32;;;;;;;;;10.33;9.00;;;;;;;;119876;1192;24981;-70
2023/07/07 14:00:00;;;;;;;;;9.00;9.00;;;;;;;;119841;1192;25673;-71
2023/07/07 14:02:29;;;;;;;;;9.00;8.67;;;;;;;;119860;1192;26267;-71
2023/07/07 14:05:06;;;;;;;;;10.00;9.00;;;;;;;;119875;1183;24750;-71
2023/07/07 14:07:39;;;;;;;;;8.00;8.00;;;;;;;;119469;1193;25635;-71
2023/07/07 14:10:23;;;;;;;;;8.67;8.00;;;;;;;;119510;1185;25324;-70
2023/07/07 14:12:52;;;;;;;;;7.67;7.67;;;;;;;;119502;1192;25668;-71
2023/07/07 14:15:28;;;;;;;;;5.33;5.33;;;;;;;;119862;1192;24891;-71
2023/07/07 14:18:01;;;;;;;;;9.75;9.75;;;;;;;;119481;1192;25949;-71
2023/07/07 14:20:37;;;;;;;;;7.50;6.50;;;;;;;;119869;1192;25005;-71
2023/07/07 14:23:10;;;;;;;;;8.25;8.00;;;;;;;;119881;1192;24886;-71
2023/07/07 14:25:42;;;;;;;;;9.00;7.67;;;;;;;;119881;1192;25549;-71
2023/07/07 14:28:31;;;;;;;;;7.50;6.50;;;;;;;;119850;1192;24733;-70
2023/07/07 14:31:01;;;;;;;;;6.67;5.67;;;;;;;;119699;1192;25272;-71
2023/07/07 14:33:39;;;;;;;;;7.67;7.33;;;;;;;;119704;1192;25296;-71
2023/07/07 14:36:18;;;;;;;;;9.33;9.33;;;;;;;;119864;1192;25342;-72
2023/07/07 14:39:03;;;;;;;;;6.00;6.00;;;;;;;;119747;1184;25475;-71
2023/07/07 14:41:34;;;;;;;;;8.00;6.25;;;;;;;;119717;1192;25399;-71
2023/07/07 14:44:03;;;;;;;;;13.25;8.75;;;;;;;;119715;1186;25095;-71
2023/07/07 14:46:34;;;;;;;;;8.67;8.67;;;;;;;;119706;1192;24985;-71
2023/07/07 14:49:19;;;;;;;;;7.00;7.00;;;;;;;;119890;1184;25591;-71
2023/07/07 14:51:53;;;;;;;;;4.67;4.00;;;;;;;;119882;1184;25094;-71
2023/07/07 14:54:23;;;;;;;;;10.50;8.50;;;;;;;;119723;1185;25589;-71